• Join FlightAware (Why Join?)
  • Login
  • US Flag 
01:22AM EDT


 

Airport Tracker/Info


-or-


 

Live Flight TrackerFlight Track Log ✈ UAL4462 ✈ 14-Jun-2014 ✈ KATL - KIAD

Flight Track Log - Related Links

Times and Time Zones

All times are in EDT time to prevent confusion due to time zone crossing. See the UAL4462 flight status page for this flight to view local times or setup timezone preferences in your user account.

Time Position Orientation Groundspeed Altitude Reporting Facility
EDT Latitude Longitude Course Direction KTS MPH feet Rate Location/Type
05:57AM 33.6500 -84.4667 53° Northeast 167 192 2,500  Level Atlanta TRACON
05:58AM 33.6500 -84.5333 270° West 235 270 3,500 1,620 Climbing Atlanta TRACON
05:59AM 33.7308 -84.0099 54° Northeast  Level FlightAware Approximate
05:59AM 33.7167 -84.5833 328° Northwest 272 313 5,800  Level Atlanta TRACON
06:00AM 33.7999 -83.8949 54° Northeast  Level FlightAware Approximate
06:00AM 33.7833 -84.5833 360° North 275 316 7,900  Level Atlanta TRACON
06:01AM 33.8692 -83.7800 48° Northeast  Level FlightAware Approximate
06:01AM 33.8394 -84.4614 61° Northeast 284 327 10,700  Level Atlanta Center
06:02AM 33.9450 -83.6712 53° Northeast  Level FlightAware Approximate
06:02AM 33.8522 -84.3564 82° East 290 334 11,900  Level Atlanta Center
06:03AM 33.8650 -84.2439 82° East 318 366 12,900 960 Climbing Atlanta Center
06:04AM 33.8797 -84.1264 81° East 341 392 13,900 900 Climbing Atlanta Center
06:05AM 33.8922 -84.0039 83° East 359 413 14,800 900 Climbing Atlanta Center
06:06AM 33.9069 -83.8811 82° East 365 420 15,800 960 Climbing Atlanta Center
06:07AM 33.9211 -83.7583 82° East 370 426 16,800 960 Climbing Atlanta Center
06:08AM 33.9731 -83.6531 59° Northeast 359 413 17,800 900 Climbing Atlanta Center
06:09AM 34.0333 -83.5550 53° Northeast 353 406 18,600 900 Climbing Atlanta Center
06:10AM 34.0956 -83.4544 53° Northeast 359 413 19,600 960 Climbing Atlanta Center
06:11AM 34.1597 -83.3533 52° Northeast 370 426 20,600 900 Climbing Atlanta Center
06:12AM 34.2217 -83.2500 54° Northeast 370 426 21,500 900 Climbing Atlanta Center
06:13AM 34.2836 -83.1489 53° Northeast 370 426 22,500 960 Climbing Atlanta Center
06:14AM 34.3494 -83.0450 52° Northeast 375 432 23,500 900 Climbing Atlanta Center
06:15AM 34.4133 -82.9408 53° Northeast 375 432 24,400 900 Climbing Atlanta Center
06:16AM 34.4792 -82.8369 52° Northeast 381 438 25,400 900 Climbing Atlanta Center
06:17AM 34.5428 -82.7350 53° Northeast 381 438 26,300 900 Climbing Atlanta Center
06:18AM 34.6064 -82.6281 54° Northeast 381 438 27,300 960 Climbing Atlanta Center
06:19AM 34.6697 -82.5233 54° Northeast 381 438 28,300 960 Climbing Atlanta Center
06:20AM 34.7353 -82.4211 52° Northeast 381 438 29,300 900 Climbing Atlanta Center
06:21AM 34.7986 -82.3136 54° Northeast 386 444 30,200 840 Climbing Atlanta Center
06:22AM 34.8639 -82.2086 53° Northeast 386 444 31,000 360 Climbing Atlanta Center
06:23AM 34.9411 -82.0878 52° Northeast 392 451 31,000  Level Atlanta Center
06:24AM 35.0122 -81.9694 54° Northeast 410 472 31,000  Level Atlanta Center
06:25AM 35.0831 -81.8408 56° Northeast 432 497 31,000  Level Atlanta Center
06:26AM 35.1517 -81.7094 57° Northeast 446 513 31,000  Level Atlanta Center
06:27AM 35.2181 -81.5803 58° Northeast 452 520 31,000  Level Atlanta Center
06:28AM 35.2883 -81.4511 56° Northeast 458 527 31,000  Level Atlanta Center
06:29AM 35.3522 -81.3242 58° Northeast 452 520 31,000  Level Atlanta Center
06:30AM 35.4161 -81.1972 58° Northeast 442 509 31,000  Level Atlanta Center
06:31AM 35.4761 -81.0806 58° Northeast 442 509 31,000  Level Atlanta Center
06:32AM 35.5458 -80.9528 56° Northeast 442 509 31,000  Level Atlanta Center
06:33AM 35.6133 -80.8200 58° Northeast 447 514 31,000  Level Atlanta Center
06:34AM 35.6808 -80.6897 57° Northeast 447 514 31,000  Level Atlanta Center
06:35AM 35.7483 -80.5589 58° Northeast 447 514 31,000  Level Atlanta Center
06:36AM 35.8175 -80.4278 57° Northeast 447 514 31,000  Level Atlanta Center
06:37AM 35.8822 -80.2944 59° Northeast 447 514 31,000  Level Atlanta Center
06:38AM 35.9511 -80.1603 58° Northeast 447 514 31,000  Level Atlanta Center
06:39AM 36.0178 -80.0261 58° Northeast 447 514 31,000  Level Atlanta Center
06:41AM 36.1192 -79.8503 54° Northeast 466 536 31,000  Level Washington Center
06:42AM 36.1936 -79.7192 55° Northeast 466 536 31,000  Level Washington Center
06:43AM 36.2669 -79.5856 56° Northeast 468 539 31,000  Level Washington Center
06:44AM 36.3433 -79.4519 55° Northeast 470 541 31,000  Level Washington Center
06:45AM 36.4186 -79.3164 55° Northeast 471 542 31,000 -540 Level Washington Center
06:46AM 36.4933 -79.1836 55° Northeast 472 543 30,000 -1,020 Descending Washington Center
06:47AM 36.5689 -79.0481 55° Northeast 473 544 29,000 -1,560 Descending Washington Center
06:48AM 36.6567 -78.8869 56° Northeast 471 542 26,900 -1,980 Descending Washington Center
06:49AM 36.7278 -78.7581 55° Northeast 459 528 25,000 -960 Descending Washington Center
06:50AM 36.7981 -78.6322 55° Northeast 450 518 25,000 -720 Level Washington Center
06:51AM 36.8647 -78.5094 56° Northeast 435 501 23,600 -1,440 Descending Washington Center
06:52AM 36.9286 -78.3964 55° Northeast 418 481 22,100 -840 Descending Washington Center
06:53AM 36.9933 -78.2761 56° Northeast 413 475 22,000 -60 Descending Washington Center
06:54AM 37.0781 -78.1750 44° Northeast 421 484 22,000  Level Washington Center
06:55AM 37.1803 -78.0972 31° Northeast 427 491 22,000  Level Washington Center
06:56AM 37.2828 -78.0189 31° Northeast 432 497 22,000  Level Washington Center
06:57AM 37.4011 -77.9261 32° Northeast 426 490 22,000  Level Washington Center
06:58AM 37.5011 -77.8506 31° Northeast 423 487 22,000 -300 Level Washington Center
06:59AM 37.6025 -77.7856 27° Northeast 414 476 21,400 -1,080 Descending Washington Center
07:00AM 37.7086 -77.7236 25° Northeast 415 478 19,900 -1,500 Descending Washington Center
07:01AM 37.8117 -77.6625 25° Northeast 414 476 18,300 -1,920 Descending Washington Center
07:02AM 37.9075 -77.6067 25° Northeast 386 444 15,900 -2,400 Descending Washington Center
07:03AM 38.0006 -77.5528 25° Northeast 374 430 13,400 -2,280 Descending Washington Center
07:04AM 38.1072 -77.4897 25° Northeast 374 430 11,300 -1,620 Descending Washington Center
07:05AM 38.1928 -77.4383 25° Northeast 349 402 10,200 -900 Descending Washington Center
07:06AM 38.2689 -77.3933 25° Northeast 312 359 9,500 -1,260 Descending Washington Center
07:07AM 38.3436 -77.4036 354° North 284 327 7,700 -1,260 Descending Washington Center
07:08AM 38.4153 -77.4256 347° North 268 308 6,900 -600 Descending Washington Center
07:09AM 38.5036 -77.4550 345° North 269 310 6,500 -720 Descending Washington Center
07:10AM 38.5772 -77.4678 352° North 269 310 5,500 -960 Descending Washington Center
07:11AM 38.6333 -77.4667 North 260 299 4,800 -720 Descending Potomac TRACON
07:12AM 38.7000 -77.4667 360° North 217 250 4,200 -540 Descending Potomac TRACON
07:13AM 38.7667 -77.4667 360° North 203 234 3,800 -720 Descending Potomac TRACON
07:14AM 38.8000 -77.4667 360° North 177 204 2,900 -840 Descending Potomac TRACON
07:15AM 38.8500 -77.4667 360° North 126 145 2,300 -720 Descending Potomac TRACON
07:16AM 38.8833 -77.4667 360° North 125 144 1,600 -720 Descending Potomac TRACON
07:17AM 38.9167 -77.4667 360° North 126 145 1,000 -480 Descending Potomac TRACON
07:19AM 38.9594 -77.4603 North 127 146 400 -360 Descending Washington Center